Time;durP1;ratioP1;P1;durP2;ratioP2;P2;SDS_P1;SDS_P2;PMS_P1;PMS_P2;Temp;Humidity;BMP_temperature;BMP_pressure;BME280_temperature;BME280_humidity;BME280_pressure;Samples;Min_cycle;Max_cycle;Signal;HPM_P1;HPM_P2
2021/04/25 00:02:09;;;;;;;9.13;5.47;;;5.30;99.90;;;;;;4989197;28;20249;-35
2021/04/25 00:04:36;;;;;;;5.93;4.05;;;5.40;99.90;;;;;;4989141;28;20340;-34
2021/04/25 00:07:03;;;;;;;7.80;4.63;;;5.40;99.90;;;;;;4989561;28;20204;-33
2021/04/25 00:09:30;;;;;;;12.90;5.50;;;5.40;99.90;;;;;;4988670;28;20205;-33
2021/04/25 00:11:58;;;;;;;5.97;3.88;;;5.30;99.90;;;;;;4989192;28;20225;-34
2021/04/25 00:14:24;;;;;;;20.50;6.57;;;5.30;99.90;;;;;;4989391;28;20622;-33
2021/04/25 00:16:52;;;;;;;7.10;4.38;;;5.20;99.90;;;;;;4989570;28;20621;-35
2021/04/25 00:19:19;;;;;;;8.13;4.82;;;5.20;99.90;;;;;;4989083;28;20205;-33
2021/04/25 00:21:46;;;;;;;10.95;4.60;;;5.10;99.90;;;;;;4989704;28;20198;-34
2021/04/25 00:24:13;;;;;;;8.15;4.65;;;4.90;99.90;;;;;;4986956;28;20522;-33
2021/04/25 00:26:39;;;;;;;6.93;4.57;;;5.00;99.90;;;;;;4988848;28;20712;-33
2021/04/25 00:29:06;;;;;;;9.60;4.60;;;4.90;99.90;;;;;;4990334;28;20228;-35
2021/04/25 00:31:34;;;;;;;11.77;5.45;;;4.80;99.90;;;;;;4992886;28;20285;-34
2021/04/25 00:34:01;;;;;;;8.43;5.15;;;4.80;99.90;;;;;;4992611;28;20281;-34
2021/04/25 00:36:36;;;;;;;10.18;5.40;;;4.70;99.90;;;;;;4992515;28;20264;-33
2021/04/25 00:39:03;;;;;;;11.45;5.55;;;4.70;99.90;;;;;;4937869;29;20233;-80
2021/04/25 00:41:31;;;;;;;9.60;4.15;;;4.70;99.90;;;;;;4945812;29;20703;-80
2021/04/25 00:44:08;;;;;;;10.55;5.07;;;4.80;99.90;;;;;;4950353;29;20694;-80
2021/04/25 00:46:35;;;;;;;15.00;6.40;;;4.80;99.90;;;;;;4946941;29;20286;-81
2021/04/25 00:49:17;;;;;;;9.52;4.65;;;4.80;99.90;;;;;;4947144;29;20230;-80
2021/04/25 00:51:45;;;;;;;8.82;4.68;;;4.90;99.90;;;;;;4955417;29;20285;-82
2021/04/25 00:54:11;;;;;;;6.97;4.10;;;4.70;99.90;;;;;;4941695;29;20198;-81
2021/04/25 00:56:39;;;;;;;9.43;4.82;;;4.70;99.90;;;;;;4958566;28;20287;-81
2021/04/25 00:59:06;;;;;;;7.95;4.78;;;4.70;99.90;;;;;;4959601;28;20203;-81
2021/04/25 01:01:33;;;;;;;9.18;4.80;;;4.60;99.90;;;;;;4977293;28;20689;-81
2021/04/25 01:03:59;;;;;;;9.63;5.55;;;4.60;99.90;;;;;;4977815;28;20260;-81
2021/04/25 01:06:26;;;;;;;9.20;4.95;;;4.80;99.90;;;;;;4978593;28;20211;-82
2021/04/25 01:08:53;;;;;;;8.50;5.05;;;4.70;99.90;;;;;;4959468;28;20298;-82
2021/04/25 01:11:20;;;;;;;8.80;5.47;;;4.60;99.90;;;;;;4967349;28;20218;-82
2021/04/25 01:13:50;;;;;;;11.70;5.43;;;4.40;99.90;;;;;;4985178;28;20283;-82
2021/04/25 01:16:17;;;;;;;7.82;4.30;;;4.20;99.90;;;;;;4992885;28;20214;-82
2021/04/25 01:18:44;;;;;;;7.30;4.88;;;4.30;99.90;;;;;;4995903;28;20202;-82
2021/04/25 01:21:12;;;;;;;9.85;5.47;;;4.20;99.90;;;;;;4999731;28;20198;-80
2021/04/25 01:23:39;;;;;;;9.27;5.45;;;4.20;99.90;;;;;;4997259;28;20306;-81
2021/04/25 01:26:06;;;;;;;10.25;4.88;;;4.10;99.90;;;;;;4996507;28;20209;-82
2021/04/25 01:28:33;;;;;;;9.60;5.13;;;4.00;99.90;;;;;;4989011;28;20258;-82
2021/04/25 01:31:01;;;;;;;6.05;4.53;;;4.20;99.90;;;;;;4995807;28;20716;-82
2021/04/25 01:33:28;;;;;;;7.65;5.28;;;4.20;99.90;;;;;;4995353;28;20222;-81
2021/04/25 01:35:55;;;;;;;6.32;4.93;;;4.20;99.90;;;;;;4994853;28;20249;-81
2021/04/25 01:38:22;;;;;;;8.35;4.00;;;4.30;99.90;;;;;;4979168;28;20205;-81
2021/04/25 01:40:49;;;;;;;8.32;4.65;;;4.30;99.90;;;;;;4994233;28;20280;-81
2021/04/25 01:43:16;;;;;;;10.90;5.20;;;4.20;99.90;;;;;;4991474;28;20229;-82
2021/04/25 01:45:43;;;;;;;12.73;5.40;;;4.10;99.90;;;;;;4987379;28;20285;-81
2021/04/25 01:48:10;;;;;;;11.18;4.97;;;4.20;99.90;;;;;;4983667;28;20190;-82
2021/04/25 01:50:38;;;;;;;10.73;5.05;;;4.00;99.90;;;;;;4987539;28;20221;-82
2021/04/25 01:53:05;;;;;;;8.63;5.55;;;3.80;99.90;;;;;;4976727;28;20206;-82
2021/04/25 01:55:34;;;;;;;8.20;5.10;;;3.80;99.90;;;;;;4984261;28;20189;-82
2021/04/25 01:58:02;;;;;;;8.43;5.13;;;3.90;99.90;;;;;;4982280;28;20190;-82
2021/04/25 02:00:31;;;;;;;8.52;4.60;;;3.90;99.90;;;;;;4963719;28;20710;-82
2021/04/25 02:03:01;;;;;;;7.05;5.10;;;3.90;99.90;;;;;;4977049;28;20201;-82
2021/04/25 02:05:28;;;;;;;9.68;5.75;;;3.80;99.90;;;;;;4983169;28;20241;-82
2021/04/25 02:07:56;;;;;;;8.45;5.07;;;3.70;99.90;;;;;;4980867;28;20245;-82
2021/04/25 02:10:24;;;;;;;15.57;4.40;;;3.80;99.90;;;;;;4981555;28;20695;-82
2021/04/25 02:12:53;;;;;;;6.93;4.75;;;3.80;99.90;;;;;;4983668;28;20200;-82
2021/04/25 02:15:21;;;;;;;8.18;5.05;;;3.80;99.90;;;;;;4984152;28;20274;-82
2021/04/25 02:17:48;;;;;;;9.63;5.05;;;3.70;99.90;;;;;;4983079;28;20197;-82
2021/04/25 02:20:17;;;;;;;9.48;4.95;;;3.60;99.90;;;;;;4982914;28;20224;-82
2021/04/25 02:22:45;;;;;;;9.68;4.55;;;3.70;99.90;;;;;;4983109;28;20233;-82
2021/04/25 02:25:13;;;;;;;8.45;5.00;;;3.60;99.90;;;;;;4981822;28;20226;-82
2021/04/25 02:27:41;;;;;;;10.57;4.43;;;3.60;99.90;;;;;;4974022;28;20286;-82
2021/04/25 02:30:10;;;;;;;9.60;4.57;;;3.50;99.90;;;;;;4982763;28;20233;-82
2021/04/25 02:32:38;;;;;;;12.18;5.65;;;3.40;99.90;;;;;;4982442;28;20221;-82
2021/04/25 02:35:06;;;;;;;4.25;3.85;;;3.50;99.90;;;;;;4982572;28;20205;-82
2021/04/25 02:37:33;;;;;;;10.60;4.93;;;3.60;99.90;;;;;;4982879;28;20198;-81
2021/04/25 02:40:00;;;;;;;6.68;4.47;;;3.60;99.90;;;;;;4981958;28;20286;-81
2021/04/25 02:42:26;;;;;;;4.75;4.10;;;3.60;99.90;;;;;;4982215;28;20194;-83
2021/04/25 02:44:53;;;;;;;8.45;4.93;;;3.50;99.90;;;;;;4979180;28;20600;-82
2021/04/25 02:47:21;;;;;;;5.93;4.32;;;3.40;99.90;;;;;;4978452;28;20190;-82
2021/04/25 02:49:47;;;;;;;9.98;5.82;;;3.40;99.90;;;;;;4979025;28;20263;-81
2021/04/25 02:52:14;;;;;;;11.75;5.22;;;3.30;99.90;;;;;;4961812;28;20623;-82
2021/04/25 02:54:41;;;;;;;9.88;5.25;;;3.40;99.90;;;;;;4977876;28;20194;-82
2021/04/25 02:57:08;;;;;;;11.98;5.20;;;3.40;99.90;;;;;;4976916;28;20250;-82
2021/04/25 02:59:34;;;;;;;12.02;5.53;;;3.30;99.90;;;;;;4978778;28;20292;-82
2021/04/25 03:02:01;;;;;;;10.63;5.57;;;3.40;99.90;;;;;;4976649;28;20677;-82
2021/04/25 03:04:29;;;;;;;9.98;4.78;;;3.40;99.90;;;;;;4976263;28;20221;-82
2021/04/25 03:06:56;;;;;;;10.77;5.70;;;3.40;99.90;;;;;;4976746;28;20202;-82
2021/04/25 03:09:23;;;;;;;9.25;4.30;;;3.40;99.90;;;;;;4976946;28;20205;-82
2021/04/25 03:11:50;;;;;;;7.32;4.43;;;3.40;99.90;;;;;;4977801;28;20198;-82
2021/04/25 03:14:17;;;;;;;7.10;4.72;;;3.40;99.90;;;;;;4978551;28;20284;-82
2021/04/25 03:16:44;;;;;;;11.10;5.40;;;3.40;99.90;;;;;;4977215;28;20194;-82
2021/04/25 03:19:10;;;;;;;13.25;6.03;;;3.40;99.90;;;;;;4977010;28;20201;-82
2021/04/25 03:21:37;;;;;;;10.02;5.10;;;3.30;99.90;;;;;;4977984;28;20194;-82
2021/04/25 03:24:05;;;;;;;9.20;5.50;;;3.40;99.90;;;;;;4977126;28;20213;-82
2021/04/25 03:26:32;;;;;;;11.38;5.22;;;3.40;99.90;;;;;;4976550;28;20189;-82
2021/04/25 03:28:59;;;;;;;11.52;4.85;;;3.60;99.90;;;;;;4977196;28;20586;-82
2021/04/25 03:31:26;;;;;;;9.93;5.43;;;3.50;99.90;;;;;;4972934;28;20226;-82
2021/04/25 03:33:52;;;;;;;7.82;5.05;;;3.40;99.90;;;;;;4959709;28;20202;-81
2021/04/25 03:36:19;;;;;;;12.60;5.50;;;3.30;99.90;;;;;;4977843;28;20689;-82
2021/04/25 03:38:46;;;;;;;7.80;4.88;;;3.20;99.90;;;;;;4976971;28;20201;-82
2021/04/25 03:41:13;;;;;;;10.75;5.13;;;3.10;99.90;;;;;;4980130;28;20857;-82
2021/04/25 03:43:41;;;;;;;9.75;5.85;;;3.10;99.90;;;;;;4977908;28;20209;-82
2021/04/25 03:46:07;;;;;;;12.45;6.35;;;3.10;99.90;;;;;;4977196;28;20198;-82
2021/04/25 03:48:34;;;;;;;10.50;5.63;;;3.10;99.90;;;;;;4958853;28;20542;-81
2021/04/25 03:51:01;;;;;;;7.47;5.63;;;3.20;99.90;;;;;;4976429;28;20233;-82
2021/04/25 03:53:28;;;;;;;12.15;5.47;;;3.20;99.90;;;;;;4978089;28;20197;-81
2021/04/25 03:55:55;;;;;;;9.63;4.95;;;3.20;99.90;;;;;;4978436;28;20225;-82
2021/04/25 03:58:22;;;;;;;9.50;6.25;;;3.10;99.90;;;;;;4977522;28;20210;-82
2021/04/25 04:00:48;;;;;;;10.70;5.00;;;3.10;99.90;;;;;;4973934;28;20396;-82
2021/04/25 04:03:15;;;;;;;14.10;7.05;;;3.10;99.90;;;;;;4975941;28;20206;-81
2021/04/25 04:05:42;;;;;;;10.15;7.30;;;3.20;99.90;;;;;;4980650;28;20213;-81
2021/04/25 04:08:09;;;;;;;9.35;5.22;;;3.10;99.90;;;;;;4979406;28;20716;-82
2021/04/25 04:10:35;;;;;;;10.35;6.13;;;3.00;99.90;;;;;;4980199;28;20232;-82
2021/04/25 04:13:03;;;;;;;12.63;6.32;;;3.00;99.90;;;;;;4979565;28;20202;-82
2021/04/25 04:15:30;;;;;;;9.95;5.43;;;2.90;99.90;;;;;;4982832;28;20186;-82
2021/04/25 04:17:58;;;;;;;9.05;5.90;;;2.80;99.90;;;;;;4983854;28;20202;-82
2021/04/25 04:20:25;;;;;;;11.10;6.93;;;2.80;99.90;;;;;;4981467;28;20731;-82
2021/04/25 04:22:52;;;;;;;15.20;6.30;;;2.70;99.90;;;;;;4980870;28;20615;-81
2021/04/25 04:25:18;;;;;;;7.15;5.25;;;2.80;99.90;;;;;;4980833;28;20235;-82
2021/04/25 04:27:45;;;;;;;10.68;6.45;;;2.90;99.90;;;;;;4981384;28;20264;-82
2021/04/25 04:30:14;;;;;;;12.75;6.32;;;3.00;99.90;;;;;;4981866;28;20221;-82
2021/04/25 04:32:41;;;;;;;9.45;5.72;;;2.90;99.90;;;;;;4979261;28;20219;-82
2021/04/25 04:35:08;;;;;;;8.13;5.65;;;2.90;99.90;;;;;;4963558;28;20198;-82
2021/04/25 04:37:35;;;;;;;16.45;12.88;;;3.00;99.90;;;;;;4981319;28;20289;-82
2021/04/25 04:40:02;;;;;;;12.23;7.72;;;3.00;99.90;;;;;;4981040;28;20245;-82
2021/04/25 04:42:29;;;;;;;13.38;5.53;;;3.10;99.90;;;;;;4979854;28;20748;-82
2021/04/25 04:44:56;;;;;;;12.18;7.00;;;3.10;99.90;;;;;;4982041;28;20218;-82
2021/04/25 04:47:23;;;;;;;9.43;5.25;;;3.10;99.90;;;;;;4980333;28;20198;-82
2021/04/25 04:49:50;;;;;;;11.60;6.15;;;3.10;99.90;;;;;;4979938;28;20226;-82
2021/04/25 04:52:17;;;;;;;12.73;6.90;;;3.20;99.90;;;;;;4981418;28;20190;-82
2021/04/25 04:54:45;;;;;;;8.85;5.55;;;3.40;99.90;;;;;;4980423;28;20194;-83
2021/04/25 04:57:15;;;;;;;8.77;6.20;;;3.60;99.90;;;;;;4982482;28;20206;-82
2021/04/25 04:59:41;;;;;;;11.20;5.53;;;4.00;99.90;;;;;;4982439;28;20218;-82
2021/04/25 05:02:08;;;;;;;8.07;6.32;;;4.10;99.90;;;;;;4981293;28;20202;-82
2021/04/25 05:04:35;;;;;;;13.85;7.07;;;4.40;99.90;;;;;;4982287;28;20232;-82
2021/04/25 05:07:02;;;;;;;9.65;5.45;;;4.50;99.90;;;;;;4984712;28;20289;-82
2021/04/25 05:09:29;;;;;;;15.45;6.32;;;4.60;99.90;;;;;;4985262;28;20198;-83
2021/04/25 05:11:56;;;;;;;11.40;6.38;;;4.70;99.90;;;;;;4985080;28;20206;-82
2021/04/25 05:14:23;;;;;;;13.45;7.32;;;4.80;99.90;;;;;;4984557;28;20289;-82
2021/04/25 05:16:50;;;;;;;7.60;6.13;;;4.80;99.90;;;;;;4985319;28;20209;-82
2021/04/25 05:19:17;;;;;;;11.93;6.10;;;4.90;99.90;;;;;;4985006;28;20568;-83
2021/04/25 05:21:44;;;;;;;9.93;5.85;;;4.90;99.90;;;;;;4987229;28;20224;-82
2021/04/25 05:24:12;;;;;;;11.90;5.93;;;5.10;99.90;;;;;;4985693;28;20317;-82
2021/04/25 05:26:39;;;;;;;10.05;5.82;;;5.00;99.90;;;;;;4983774;28;20202;-82
2021/04/25 05:29:06;;;;;;;10.25;4.90;;;5.10;99.90;;;;;;4982994;28;20202;-82
2021/04/25 05:31:33;;;;;;;8.32;5.13;;;4.90;99.90;;;;;;4982226;28;20210;-82
2021/04/25 05:34:00;;;;;;;10.90;6.18;;;5.00;99.90;;;;;;4982620;28;20198;-82
2021/04/25 05:36:27;;;;;;;7.18;4.63;;;5.10;99.90;;;;;;4982744;28;20241;-83
2021/04/25 05:38:54;;;;;;;9.43;5.28;;;5.10;99.90;;;;;;4983220;28;20194;-82
2021/04/25 05:41:22;;;;;;;6.82;4.88;;;5.00;99.90;;;;;;4986775;28;20228;-83
2021/04/25 05:43:50;;;;;;;9.50;5.77;;;5.20;99.90;;;;;;4986971;28;20218;-82
2021/04/25 05:47:04;;;;;;;8.30;4.85;;;5.30;99.90;;;;;;4987055;28;20619;-83
2021/04/25 05:49:34;;;;;;;11.48;5.95;;;5.30;99.90;;;;;;4986302;28;20262;-83
2021/04/25 05:52:10;;;;;;;10.45;4.93;;;5.40;99.90;;;;;;4984116;28;20229;-83
2021/04/25 05:54:44;;;;;;;7.25;3.90;;;5.40;99.90;;;;;;4985579;28;20292;-83
2021/04/25 05:57:37;;;;;;;12.88;4.30;;;5.50;99.90;;;;;;4954456;29;20285;-82
2021/04/25 06:00:30;;;;;;;7.65;4.28;;;5.80;99.90;;;;;;4983301;28;20249;-82
2021/04/25 06:03:31;;;;;;;9.18;4.10;;;5.70;99.90;;;;;;4964402;28;20206;-81
2021/04/25 06:06:19;;;;;;;5.40;3.50;;;5.90;99.90;;;;;;4989795;28;20228;-82
2021/04/25 06:08:48;;;;;;;8.38;3.60;;;5.90;99.90;;;;;;4986147;28;20253;-82
2021/04/25 06:11:29;;;;;;;6.50;3.78;;;6.00;99.90;;;;;;4985604;28;20217;-83
2021/04/25 06:14:01;;;;;;;8.40;4.10;;;5.90;99.90;;;;;;4984523;28;20209;-82
2021/04/25 06:16:36;;;;;;;7.25;3.55;;;6.00;99.90;;;;;;4983716;28;20206;-82
2021/04/25 06:19:39;;;;;;;6.72;3.72;;;5.90;99.90;;;;;;4978401;28;20333;-82
2021/04/25 06:22:21;;;;;;;4.30;2.85;;;5.90;99.90;;;;;;4982395;28;20221;-82
2021/04/25 06:25:28;;;;;;;10.10;3.47;;;6.00;99.90;;;;;;4966180;28;20233;-82
2021/04/25 06:28:09;;;;;;;8.43;3.60;;;6.00;99.90;;;;;;4982870;28;20201;-83
2021/04/25 06:30:44;;;;;;;5.13;2.50;;;6.20;99.90;;;;;;4982021;28;20227;-82
2021/04/25 06:33:28;;;;;;;10.98;3.50;;;6.20;99.90;;;;;;4980675;28;20692;-82
2021/04/25 06:38:58;;;;;;;9.52;3.55;;;6.20;99.90;;;;;;4976455;28;20245;-82
2021/04/25 06:41:25;;;;;;;4.40;2.63;;;6.30;99.90;;;;;;4975036;28;20218;-82
2021/04/25 06:43:58;;;;;;;10.00;2.97;;;6.40;99.90;;;;;;4979363;28;20209;-82
2021/04/25 06:46:24;;;;;;;7.82;3.50;;;6.50;99.90;;;;;;4978060;28;20272;-79
2021/04/25 06:48:54;;;;;;;4.53;2.67;;;6.50;99.90;;;;;;4976116;28;20230;-79
2021/04/25 06:51:23;;;;;;;8.32;3.78;;;6.40;99.90;;;;;;4977019;28;20256;-79
2021/04/25 06:53:53;;;;;;;6.75;3.22;;;6.30;99.90;;;;;;4977210;28;20616;-81
2021/04/25 06:56:20;;;;;;;13.35;4.35;;;6.50;99.90;;;;;;4978690;28;20270;-80
2021/04/25 06:58:46;;;;;;;14.98;4.28;;;6.50;99.90;;;;;;4978340;28;20190;-80
2021/04/25 07:01:15;;;;;;;5.80;3.03;;;6.50;99.90;;;;;;4979806;28;20230;-80
2021/04/25 07:03:41;;;;;;;9.68;3.08;;;6.50;99.90;;;;;;4979664;28;20229;-81
2021/04/25 07:06:09;;;;;;;10.40;3.35;;;6.60;99.90;;;;;;4978616;28;20410;-80
2021/04/25 07:08:35;;;;;;;9.60;2.80;;;6.60;99.90;;;;;;4996481;28;20325;-80
2021/04/25 07:11:02;;;;;;;10.50;3.80;;;6.70;99.90;;;;;;4996089;28;20230;-80
2021/04/25 07:13:29;;;;;;;8.45;2.97;;;6.60;99.90;;;;;;4978546;28;20196;-79
2021/04/25 07:15:55;;;;;;;5.32;3.78;;;6.60;99.90;;;;;;4974545;28;22464;-79
2021/04/25 07:18:23;;;;;;;5.70;3.17;;;6.70;99.90;;;;;;4973328;28;20220;-80
2021/04/25 07:20:52;;;;;;;6.97;3.83;;;6.80;99.90;;;;;;4971977;28;20232;-80
2021/04/25 07:23:19;;;;;;;8.63;2.80;;;6.90;99.90;;;;;;4972513;28;20206;-79
2021/04/25 07:25:46;;;;;;;11.90;2.97;;;6.90;99.90;;;;;;4972865;28;20226;-80
2021/04/25 07:28:14;;;;;;;8.73;2.80;;;6.90;99.90;;;;;;4974461;28;20202;-84
2021/04/25 07:30:41;;;;;;;8.13;2.65;;;6.80;99.90;;;;;;4967855;28;20359;-81
2021/04/25 07:33:07;;;;;;;6.50;2.70;;;6.90;99.90;;;;;;4967137;28;20292;-82
2021/04/25 07:35:35;;;;;;;6.13;2.65;;;7.00;99.90;;;;;;4975048;28;20201;-82
2021/04/25 07:38:01;;;;;;;6.50;2.70;;;7.30;99.90;;;;;;4972775;28;20206;-84
2021/04/25 07:40:29;;;;;;;5.47;2.38;;;7.60;99.90;;;;;;4974708;28;20217;-82
2021/04/25 07:42:55;;;;;;;8.00;2.63;;;7.70;99.90;;;;;;4981425;28;20251;-82
2021/04/25 07:45:22;;;;;;;7.38;3.58;;;7.70;99.90;;;;;;4985203;28;20213;-85
2021/04/25 07:47:49;;;;;;;9.27;3.17;;;7.80;99.90;;;;;;4983944;28;20206;-82
2021/04/25 07:50:16;;;;;;;7.80;3.50;;;7.70;99.90;;;;;;4979083;28;20668;-83
2021/04/25 07:52:44;;;;;;;3.33;2.83;;;7.70;99.90;;;;;;4983815;28;20190;-84
2021/04/25 07:55:12;;;;;;;5.78;2.97;;;7.80;99.90;;;;;;4980765;28;20710;-83
2021/04/25 07:57:39;;;;;;;4.60;2.35;;;7.60;99.90;;;;;;4991682;28;20198;-85
2021/04/25 08:00:17;;;;;;;8.80;2.58;;;7.60;99.90;;;;;;4977725;28;20205;-84
2021/04/25 08:02:54;;;;;;;4.53;2.38;;;7.70;99.90;;;;;;4999139;28;20193;-83
2021/04/25 08:05:21;;;;;;;4.20;2.40;;;7.80;99.90;;;;;;4984472;28;20214;-86
2021/04/25 08:07:51;;;;;;;8.70;2.67;;;7.90;99.90;;;;;;4984820;28;20206;-84
2021/04/25 08:10:18;;;;;;;9.68;5.25;;;8.00;99.90;;;;;;4983828;28;20291;-82
2021/04/25 08:12:45;;;;;;;6.28;3.28;;;7.90;99.90;;;;;;4983170;28;20194;-85
2021/04/25 08:15:13;;;;;;;5.28;3.28;;;8.10;99.90;;;;;;4984506;28;20233;-83
2021/04/25 08:17:39;;;;;;;7.97;4.13;;;8.30;99.90;;;;;;4983440;28;20225;-82
2021/04/25 08:20:07;;;;;;;4.90;3.20;;;8.40;99.90;;;;;;4989402;28;20253;-83
2021/04/25 08:22:33;;;;;;;4.70;2.63;;;8.50;99.90;;;;;;4979868;28;20212;-83
2021/04/25 08:25:01;;;;;;;4.18;2.17;;;8.50;99.90;;;;;;4980087;28;20210;-83
2021/04/25 08:27:28;;;;;;;5.85;1.85;;;8.70;99.90;;;;;;4986673;28;20205;-83
2021/04/25 08:29:55;;;;;;;6.25;2.40;;;8.90;99.90;;;;;;4983191;28;20233;-81
2021/04/25 08:32:28;;;;;;;6.95;2.72;;;8.90;99.90;;;;;;4980579;28;20621;-81
2021/04/25 08:34:55;;;;;;;5.78;2.15;;;8.80;99.90;;;;;;4979799;28;20217;-81
2021/04/25 08:37:21;;;;;;;5.38;2.55;;;9.10;99.90;;;;;;4977202;28;20238;-81
2021/04/25 08:39:48;;;;;;;12.43;7.72;;;9.50;99.90;;;;;;4972217;28;20225;-81
2021/04/25 08:42:15;;;;;;;11.13;3.40;;;9.70;99.90;;;;;;4972822;28;20290;-80
2021/04/25 08:44:43;;;;;;;8.77;3.08;;;9.90;99.90;;;;;;4975763;28;20264;-80
2021/04/25 08:47:12;;;;;;;6.40;3.38;;;9.60;99.90;;;;;;4975982;28;20688;-81
2021/04/25 08:49:41;;;;;;;5.65;2.55;;;9.60;99.90;;;;;;4978420;28;20232;-80
2021/04/25 08:52:08;;;;;;;5.78;2.42;;;9.20;99.90;;;;;;4976647;28;20224;-81
2021/04/25 08:54:35;;;;;;;7.22;3.00;;;9.10;99.90;;;;;;4976527;28;20204;-81
2021/04/25 08:57:03;;;;;;;7.28;2.60;;;9.00;99.90;;;;;;4976137;28;20342;-80
2021/04/25 08:59:34;;;;;;;8.25;2.67;;;9.20;99.90;;;;;;4979763;28;20685;-81
2021/04/25 09:02:00;;;;;;;35.38;20.98;;;9.40;99.90;;;;;;4987439;28;20554;-82
2021/04/25 09:04:27;;;;;;;14.65;5.32;;;9.80;99.90;;;;;;4993386;28;20222;-80
2021/04/25 09:07:02;;;;;;;4.20;1.77;;;10.00;99.90;;;;;;4977058;28;20668;-82
2021/04/25 09:09:42;;;;;;;8.52;4.38;;;10.20;99.90;;;;;;4961622;28;20205;-82
2021/04/25 09:12:12;;;;;;;3.08;2.08;;;10.00;99.90;;;;;;4962732;28;20205;-81
2021/04/25 09:14:40;;;;;;;5.43;2.00;;;9.60;99.90;;;;;;4961544;28;20198;-81
2021/04/25 09:17:08;;;;;;;3.35;2.75;;;9.70;99.90;;;;;;4979147;28;20253;-81
2021/04/25 09:19:50;;;;;;;5.75;2.17;;;10.00;99.90;;;;;;4977542;28;20260;-81
2021/04/25 09:22:18;;;;;;;3.45;2.30;;;10.40;99.90;;;;;;4975930;28;20212;-78
2021/04/25 09:24:45;;;;;;;5.40;2.70;;;10.70;99.90;;;;;;4977694;28;20292;-78
2021/04/25 09:27:23;;;;;;;2.58;2.08;;;10.60;99.90;;;;;;4976829;28;20198;-79
2021/04/25 09:30:03;;;;;;;3.75;2.22;;;10.20;99.90;;;;;;5066527;28;20901;-34
2021/04/25 09:32:32;;;;;;;3.55;2.65;;;10.50;99.90;;;;;;5054734;28;20634;-34
2021/04/25 09:35:10;;;;;;;4.13;1.80;;;10.60;99.90;;;;;;5053297;28;20203;-35
2021/04/25 09:37:40;;;;;;;4.13;2.20;;;11.10;99.90;;;;;;5036990;28;20195;-34
2021/04/25 09:40:10;;;;;;;3.17;2.60;;;11.30;99.90;;;;;;5045753;28;20192;-35
2021/04/25 09:42:57;;;;;;;5.43;1.80;;;11.60;99.90;;;;;;5072518;22;20317;-34
2021/04/25 09:45:28;;;;;;;3.72;2.00;;;11.60;99.90;;;;;;5065372;28;20673;-33
2021/04/25 09:47:55;;;;;;;5.97;2.42;;;11.80;99.90;;;;;;5064430;28;20218;-31
2021/04/25 09:50:23;;;;;;;4.80;2.00;;;12.00;99.90;;;;;;5065185;28;20199;-34
2021/04/25 09:52:51;;;;;;;3.80;2.60;;;12.30;99.90;;;;;;5085309;28;20221;-33
2021/04/25 09:55:24;;;;;;;3.28;1.95;;;12.20;99.90;;;;;;5086095;28;20190;-32
2021/04/25 09:57:53;;;;;;;4.82;2.30;;;12.00;99.90;;;;;;5086104;28;20197;-33
2021/04/25 10:00:22;;;;;;;4.28;2.38;;;12.20;99.90;;;;;;5086390;28;20613;-33
2021/04/25 10:03:04;;;;;;;4.57;2.85;;;12.30;99.90;;;;;;5086535;28;20214;-33
2021/04/25 10:05:31;;;;;;;6.25;3.75;;;12.30;99.90;;;;;;5086417;28;20281;-32
2021/04/25 10:07:59;;;;;;;3.47;2.58;;;12.00;99.90;;;;;;5085458;28;20241;-31
2021/04/25 10:10:26;;;;;;;6.68;3.95;;;10.90;99.90;;;;;;5086540;28;20201;-31
2021/04/25 10:12:54;;;;;;;5.43;2.92;;;10.70;99.90;;;;;;5086015;28;20232;-33
2021/04/25 10:15:24;;;;;;;10.20;3.78;;;10.70;99.90;;;;;;5086099;28;20194;-33
2021/04/25 10:17:54;;;;;;;5.88;3.35;;;10.80;99.90;;;;;;5085543;28;20216;-35
2021/04/25 10:20:23;;;;;;;13.20;7.03;;;11.20;99.90;;;;;;5085942;28;20202;-35
2021/04/25 10:22:51;;;;;;;5.13;2.67;;;11.80;99.90;;;;;;5086153;28;20210;-34
2021/04/25 10:25:20;;;;;;;5.32;2.88;;;12.10;99.90;;;;;;5085896;28;20617;-34
2021/04/25 10:28:00;;;;;;;4.05;2.78;;;12.30;99.90;;;;;;5085416;28;20469;-33
2021/04/25 10:30:31;;;;;;;5.82;2.95;;;12.60;99.90;;;;;;5086195;28;20285;-35
2021/04/25 10:32:58;;;;;;;4.18;2.63;;;12.80;99.90;;;;;;5085124;28;20201;-36
2021/04/25 10:35:29;;;;;;;5.65;2.40;;;13.10;99.90;;;;;;5085857;28;20198;-34
2021/04/25 10:37:56;;;;;;;5.32;3.05;;;13.60;99.90;;;;;;5085398;28;20201;-37
2021/04/25 10:40:30;;;;;;;6.05;3.00;;;13.50;99.90;;;;;;5078097;28;20606;-36
2021/04/25 10:43:02;;;;;;;6.72;2.97;;;13.30;99.90;;;;;;5072636;28;20227;-34
2021/04/25 10:45:31;;;;;;;4.47;2.65;;;12.90;99.90;;;;;;5072312;28;20198;-34
2021/04/25 10:48:24;;;;;;;9.20;4.88;;;12.70;99.90;;;;;;5071826;28;20285;-33
2021/04/25 10:50:53;;;;;;;14.80;9.45;;;12.30;99.90;;;;;;5072231;28;20227;-35
2021/04/25 10:53:32;;;;;;;4.65;2.83;;;11.90;99.90;;;;;;5072368;28;20202;-34
2021/04/25 10:56:29;;;;;;;5.53;2.67;;;11.80;99.90;;;;;;5071771;28;20243;-34
2021/04/25 10:59:30;;;;;;;4.22;2.97;;;12.10;99.90;;;;;;5071891;28;20218;-34
2021/04/25 11:01:59;;;;;;;4.35;3.47;;;12.60;99.90;;;;;;5071481;28;20293;-36
2021/04/25 11:04:58;;;;;;;4.93;3.55;;;12.70;99.90;;;;;;5071672;28;20572;-35
2021/04/25 11:07:48;;;;;;;9.23;5.18;;;12.70;99.90;;;;;;5070002;28;20673;-34
2021/04/25 11:10:22;;;;;;;5.15;3.25;;;12.20;99.90;;;;;;5071805;28;20194;-34
2021/04/25 11:12:49;;;;;;;8.43;3.67;;;12.10;99.90;;;;;;5071385;28;20229;-35
2021/04/25 11:15:55;;;;;;;4.57;2.60;;;12.10;99.90;;;;;;5071590;28;20285;-34
2021/04/25 11:18:48;;;;;;;5.45;3.25;;;12.30;99.90;;;;;;5071932;28;20290;-34
2021/04/25 11:21:43;;;;;;;3.60;3.13;;;12.10;99.90;;;;;;5071765;28;20299;-35
2021/04/25 11:24:29;;;;;;;4.18;2.97;;;12.70;99.90;;;;;;5025260;28;20267;-34
2021/04/25 11:26:59;;;;;;;3.92;2.90;;;12.90;99.90;;;;;;5071297;28;20198;-35
2021/04/25 11:29:52;;;;;;;3.47;3.08;;;12.90;99.90;;;;;;5071094;28;20264;-36
2021/04/25 11:32:37;;;;;;;5.20;3.30;;;12.90;99.90;;;;;;5071404;28;20729;-35
2021/04/25 11:35:21;;;;;;;3.90;3.05;;;12.70;99.90;;;;;;5071539;28;20281;-35
2021/04/25 11:37:49;;;;;;;5.68;2.90;;;12.60;99.90;;;;;;5070923;28;20619;-34
2021/04/25 11:40:24;;;;;;;5.85;3.42;;;12.60;99.90;;;;;;5071672;28;20267;-36
2021/04/25 11:42:51;;;;;;;5.53;4.18;;;12.60;99.90;;;;;;5071450;28;20222;-34
2021/04/25 11:45:23;;;;;;;16.08;14.68;;;12.50;99.90;;;;;;5071197;28;20194;-34
2021/04/25 11:47:52;;;;;;;5.50;4.00;;;12.60;99.90;;;;;;5070594;28;20187;-36
2021/04/25 11:50:19;;;;;;;19.75;15.98;;;12.60;99.90;;;;;;5071050;28;20198;-35
2021/04/25 11:52:47;;;;;;;7.45;4.82;;;12.70;99.90;;;;;;5069751;28;20297;-35
2021/04/25 11:55:16;;;;;;;6.28;4.43;;;13.70;99.90;;;;;;5071460;28;20226;-35
2021/04/25 11:57:46;;;;;;;5.70;3.47;;;14.10;99.90;;;;;;5070834;28;20290;-34
2021/04/25 12:00:15;;;;;;;5.05;3.47;;;14.30;99.90;;;;;;5071189;28;20191;-35
2021/04/25 12:02:49;;;;;;;2.90;2.58;;;14.90;99.90;;;;;;5070823;28;20257;-34
2021/04/25 12:05:19;;;;;;;9.45;4.15;;;14.80;99.90;;;;;;5070866;28;20710;-35
2021/04/25 12:07:47;;;;;;;4.65;3.50;;;14.80;99.90;;;;;;5070145;28;20721;-34
2021/04/25 12:10:18;;;;;;;35.10;29.17;;;15.00;99.90;;;;;;5070427;28;20629;-35
2021/04/25 12:13:05;;;;;;;14.55;11.25;;;15.60;99.90;;;;;;5070338;28;20241;-34
2021/04/25 12:15:38;;;;;;;4.80;4.03;;;16.00;99.90;;;;;;5070393;28;20252;-35
2021/04/25 12:18:05;;;;;;;10.48;7.35;;;15.70;99.90;;;;;;5070514;28;20214;-35
2021/04/25 12:20:38;;;;;;;29.17;26.17;;;15.20;99.90;;;;;;5070593;28;20277;-35
2021/04/25 12:23:04;;;;;;;13.07;11.77;;;14.80;99.90;;;;;;5069968;28;20493;-33
2021/04/25 12:25:31;;;;;;;4.78;3.78;;;14.30;99.90;;;;;;5070203;28;20780;-34
2021/04/25 12:27:59;;;;;;;4.65;3.03;;;14.10;99.90;;;;;;5069622;28;20286;-34
2021/04/25 12:30:28;;;;;;;4.28;2.63;;;13.90;99.90;;;;;;5070203;28;20579;-34
2021/04/25 12:33:06;;;;;;;4.40;2.20;;;13.80;99.90;;;;;;5070496;28;20246;-35
2021/04/25 12:35:35;;;;;;;3.60;1.95;;;13.80;99.90;;;;;;5070287;28;20206;-34
2021/04/25 12:38:22;;;;;;;3.78;2.15;;;13.90;99.90;;;;;;5069903;28;20343;-35
2021/04/25 12:41:01;;;;;;;5.53;2.10;;;14.90;99.90;;;;;;5068146;28;20574;-35
2021/04/25 12:43:30;;;;;;;5.13;2.63;;;16.00;99.90;;;;;;5070131;28;20328;-33
2021/04/25 12:45:59;;;;;;;3.65;2.55;;;16.80;99.80;;;;;;5069890;28;20732;-33
2021/04/25 12:48:38;;;;;;;1.58;1.30;;;17.30;99.90;;;;;;5069501;28;20229;-33
2021/04/25 12:51:18;;;;;;;1.77;1.50;;;16.90;99.10;;;;;;5070063;28;20220;-35
2021/04/25 12:54:04;;;;;;;5.00;4.35;;;17.00;98.60;;;;;;5069616;28;20225;-32
2021/04/25 12:56:48;;;;;;;52.67;35.28;;;17.20;98.20;;;;;;5069290;28;20213;-32
2021/04/25 12:59:18;;;;;;;16.25;12.88;;;16.80;98.00;;;;;;5061162;28;20286;-32
2021/04/25 13:01:50;;;;;;;11.50;8.68;;;16.90;97.80;;;;;;5052973;28;20281;-34
2021/04/25 13:04:38;;;;;;;7.78;6.38;;;17.00;97.60;;;;;;5063079;28;20194;-34
2021/04/25 13:07:20;;;;;;;4.82;3.28;;;16.30;97.00;;;;;;5056916;28;20233;-34
2021/04/25 13:10:12;;;;;;;1.45;1.30;;;15.50;97.80;;;;;;5060890;28;20301;-34
2021/04/25 13:12:40;;;;;;;3.30;2.30;;;15.20;96.90;;;;;;5049471;28;20730;-36